createdAt,value
2024-02-08T01:24:53.854Z,-3.40
2024-02-08T01:27:21.811Z,-3.40
2024-02-08T01:29:50.466Z,-3.40
2024-02-08T01:32:18.761Z,-3.30
2024-02-08T01:34:46.237Z,-3.50
2024-02-08T01:37:17.023Z,-3.50
2024-02-08T01:39:45.337Z,-3.60
2024-02-08T01:42:15.657Z,-3.60
2024-02-08T01:44:46.873Z,-3.50
2024-02-08T01:47:18.950Z,-3.50
2024-02-08T01:49:48.659Z,-3.60
2024-02-08T01:52:20.176Z,-3.60
2024-02-08T01:54:49.930Z,-3.60
2024-02-08T01:57:16.999Z,-3.60
2024-02-08T01:59:45.654Z,-3.50
2024-02-08T02:02:12.867Z,-3.30
2024-02-08T02:04:41.725Z,-3.40
2024-02-08T02:07:08.687Z,-3.40
2024-02-08T02:09:36.432Z,-3.50
2024-02-08T02:12:10.848Z,-3.50
2024-02-08T02:14:40.310Z,-3.50
2024-02-08T02:17:11.622Z,-3.60
2024-02-08T02:19:41.558Z,-3.60
2024-02-08T02:22:12.101Z,-3.40
2024-02-08T02:24:41.505Z,-3.40
2024-02-08T02:27:09.844Z,-3.50
2024-02-08T02:29:39.777Z,-3.40
2024-02-08T02:32:11.550Z,-3.40
2024-02-08T02:34:42.913Z,-3.40
2024-02-08T02:37:10.165Z,-3.40
2024-02-08T02:39:38.010Z,-3.50
2024-02-08T02:42:04.990Z,-3.50
2024-02-08T02:44:31.879Z,-3.40
2024-02-08T02:47:00.548Z,-3.60
2024-02-08T02:49:28.907Z,-3.40
2024-02-08T02:51:57.654Z,-3.30
2024-02-08T02:54:27.509Z,-3.50
2024-02-08T02:56:54.379Z,-3.50
2024-02-08T02:59:21.862Z,-3.50
2024-02-08T03:01:51.689Z,-3.40
2024-02-08T03:04:19.356Z,-3.40
2024-02-08T03:06:54.291Z,-3.40
2024-02-08T03:09:28.629Z,-3.40
2024-02-08T03:11:58.878Z,-3.40
2024-02-08T03:14:26.412Z,-3.40
2024-02-08T03:16:53.389Z,-3.30
2024-02-08T03:19:21.863Z,-3.20
2024-02-08T03:21:50.755Z,-3.30
2024-02-08T03:24:20.801Z,-3.30
2024-02-08T03:26:50.772Z,-3.40
2024-02-08T03:29:18.018Z,-3.40
2024-02-08T03:31:48.717Z,-3.30
2024-02-08T03:34:25.092Z,-3.40
2024-02-08T03:36:52.420Z,-3.30
2024-02-08T03:39:28.977Z,-3.40
2024-02-08T03:42:00.200Z,-3.30
2024-02-08T03:44:31.539Z,-3.50
2024-02-08T03:47:06.818Z,-3.40
2024-02-08T03:49:34.102Z,-3.40
2024-02-08T03:52:01.145Z,-3.50
2024-02-08T03:54:31.687Z,-3.40
2024-02-08T03:57:07.162Z,-3.50
2024-02-08T03:59:42.394Z,-3.30
2024-02-08T04:02:11.353Z,-3.40
2024-02-08T04:04:53.969Z,-3.40
2024-02-08T04:07:23.167Z,-3.30
2024-02-08T04:10:10.737Z,-3.40
2024-02-08T04:12:56.256Z,-3.50
2024-02-08T04:15:42.520Z,-3.50
2024-02-08T04:18:28.169Z,-3.50
2024-02-08T04:21:13.549Z,-3.50
2024-02-08T04:23:59.337Z,-3.50
2024-02-08T04:26:44.838Z,-3.50
2024-02-08T04:29:30.063Z,-3.50
2024-02-08T04:32:15.681Z,-3.60
2024-02-08T04:35:01.511Z,-3.50
2024-02-08T04:37:47.342Z,-3.50
2024-02-08T04:40:33.726Z,-3.50
2024-02-08T04:43:19.274Z,-3.50
2024-02-08T04:46:04.820Z,-3.60
2024-02-08T04:48:50.409Z,-3.40
2024-02-08T04:51:35.829Z,-3.50
2024-02-08T04:54:03.634Z,-3.60
2024-02-08T04:56:30.604Z,-3.50
2024-02-08T04:59:20.019Z,-3.50
2024-02-08T05:01:46.889Z,-3.40
2024-02-08T05:04:14.269Z,-3.50
2024-02-08T05:06:41.391Z,-3.50
2024-02-08T05:09:08.901Z,-3.30
2024-02-08T05:11:38.288Z,-3.30
2024-02-08T05:14:06.088Z,-3.30
2024-02-08T05:16:34.225Z,-3.30
2024-02-08T05:19:01.214Z,-3.30
2024-02-08T05:21:32.721Z,-3.30
2024-02-08T05:23:59.978Z,-3.40
2024-02-08T05:26:27.149Z,-3.50
2024-02-08T05:28:54.494Z,-3.50
2024-02-08T05:31:21.499Z,-3.30
2024-02-08T05:33:48.575Z,-3.40
2024-02-08T05:36:18.957Z,-3.50
2024-02-08T05:38:47.082Z,-3.40
2024-02-08T05:41:18.673Z,-3.30
2024-02-08T05:43:49.301Z,-3.30
2024-02-08T05:46:26.806Z,-3.20
2024-02-08T05:48:55.348Z,-3.30
2024-02-08T05:51:23.644Z,-3.10
2024-02-08T05:53:53.190Z,-3.10
2024-02-08T05:56:23.115Z,-3.10
2024-02-08T05:58:53.247Z,-3.20
2024-02-08T06:01:22.373Z,-3.10
2024-02-08T06:03:49.690Z,-3.10
2024-02-08T06:06:27.688Z,-3.00
2024-02-08T06:08:57.709Z,-3.10
2024-02-08T06:11:24.836Z,-3.00
2024-02-08T06:13:56.487Z,-3.10
2024-02-08T06:16:46.790Z,-3.10
2024-02-08T06:19:19.239Z,-3.00
2024-02-08T06:21:47.193Z,-3.10
2024-02-08T06:24:23.785Z,-3.20
2024-02-08T06:26:57.852Z,-3.10
2024-02-08T06:29:28.360Z,-3.10
2024-02-08T06:32:04.241Z,-3.20
2024-02-08T06:34:46.728Z,-3.30
2024-02-08T06:37:31.415Z,-3.20
2024-02-08T06:39:59.396Z,-3.20
2024-02-08T06:42:39.404Z,-3.20
2024-02-08T06:45:25.457Z,-3.10
2024-02-08T06:48:01.814Z,-3.00
2024-02-08T06:50:47.352Z,-3.10
2024-02-08T06:53:35.327Z,-3.20
2024-02-08T06:56:23.060Z,-3.30
2024-02-08T06:59:08.482Z,-3.30
2024-02-08T07:01:54.095Z,-3.30
2024-02-08T07:04:39.841Z,-3.30
2024-02-08T07:07:25.504Z,-3.20
2024-02-08T07:10:10.919Z,-3.10
2024-02-08T07:12:56.677Z,-3.20
2024-02-08T07:15:42.209Z,-3.10
2024-02-08T07:18:28.098Z,-3.10
2024-02-08T07:21:13.881Z,-3.20
2024-02-08T07:23:59.419Z,-3.20
2024-02-08T07:26:44.938Z,-3.30
2024-02-08T07:29:30.273Z,-3.30
2024-02-08T07:32:15.820Z,-3.20
2024-02-08T07:35:01.402Z,-3.30
2024-02-08T07:37:29.144Z,-3.40
2024-02-08T07:40:02.970Z,-3.40
2024-02-08T07:42:30.807Z,-3.30
2024-02-08T07:44:58.993Z,-3.30
2024-02-08T07:47:26.657Z,-3.30
2024-02-08T07:50:05.816Z,-3.10
2024-02-08T07:52:39.750Z,-3.20
2024-02-08T07:55:16.397Z,-3.10
2024-02-08T07:57:59.348Z,-3.20
2024-02-08T08:00:35.688Z,-3.20
2024-02-08T08:03:09.154Z,-3.20
2024-02-08T08:05:42.960Z,-3.20
2024-02-08T08:08:26.792Z,-3.20
2024-02-08T08:11:17.100Z,-3.10
2024-02-08T08:13:56.253Z,-3.10
2024-02-08T08:16:33.121Z,-3.20
2024-02-08T08:19:00.571Z,-3.10
2024-02-08T08:21:28.377Z,-3.20
2024-02-08T08:24:01.815Z,-3.00
2024-02-08T08:26:38.673Z,-3.10
2024-02-08T08:29:05.868Z,-2.90
2024-02-08T08:31:36.912Z,-2.90
2024-02-08T08:34:27.345Z,-2.60
2024-02-08T08:37:04.885Z,-2.30
2024-02-08T08:39:51.358Z,-2.20
2024-02-08T08:42:19.187Z,-1.90
2024-02-08T08:44:58.499Z,-1.30
2024-02-08T08:47:26.158Z,-1.20
2024-02-08T08:49:53.369Z,-1.30
2024-02-08T08:52:26.936Z,-1.30
2024-02-08T08:55:12.945Z,-1.40
2024-02-08T08:57:39.991Z,-1.30
2024-02-08T09:00:12.820Z,-1.20
2024-02-08T09:02:43.745Z,-0.80
2024-02-08T09:05:22.599Z,-0.60
2024-02-08T09:07:55.042Z,-0.30
2024-02-08T09:10:22.232Z,-0.30
2024-02-08T09:13:01.133Z,-0.30
2024-02-08T09:15:29.424Z,-0.60
2024-02-08T09:18:09.698Z,-0.90
2024-02-08T09:20:38.827Z,-1.10
2024-02-08T09:23:14.835Z,-0.80
2024-02-08T09:25:48.709Z,-0.80
2024-02-08T09:28:26.488Z,-0.90
2024-02-08T09:31:01.100Z,-1.00
2024-02-08T09:33:47.370Z,-1.00
2024-02-08T09:36:15.745Z,-1.20
2024-02-08T09:38:47.730Z,-0.90
2024-02-08T09:41:25.933Z,-1.00
2024-02-08T09:44:01.503Z,-1.20
2024-02-08T09:46:50.017Z,-1.20
2024-02-08T09:49:19.746Z,-1.20
2024-02-08T09:51:56.116Z,-1.50
2024-02-08T09:54:33.735Z,-1.20
2024-02-08T09:57:04.857Z,-1.40
2024-02-08T09:59:53.023Z,-1.30
2024-02-08T10:02:34.206Z,-1.20
2024-02-08T10:05:20.987Z,-0.90
2024-02-08T10:08:07.660Z,-0.90
2024-02-08T10:10:45.071Z,-0.60
2024-02-08T10:13:26.738Z,-0.40
2024-02-08T10:15:57.496Z,-0.10
2024-02-08T10:18:24.822Z,0.00
2024-02-08T10:20:57.450Z,0.40
2024-02-08T10:23:37.317Z,0.60
2024-02-08T10:26:22.247Z,0.10
2024-02-08T10:28:49.072Z,-0.10
2024-02-08T10:31:29.601Z,-0.30
2024-02-08T10:34:11.099Z,-0.10
2024-02-08T10:36:46.770Z,0.20
2024-02-08T10:39:26.271Z,0.60
2024-02-08T10:42:00.585Z,0.60
2024-02-08T10:44:35.835Z,0.40
2024-02-08T10:47:10.360Z,0.10
2024-02-08T10:49:44.237Z,0.00
2024-02-08T10:52:13.640Z,0.20
2024-02-08T10:54:44.906Z,0.40
2024-02-08T10:57:32.241Z,0.90
2024-02-08T11:00:00.605Z,0.90
2024-02-08T11:02:33.745Z,1.40
2024-02-08T11:05:39.313Z,1.10
2024-02-08T11:08:14.805Z,1.30
2024-02-08T11:10:43.857Z,0.90
2024-02-08T11:13:13.016Z,0.70
2024-02-08T11:15:43.922Z,0.70
2024-02-08T11:18:31.152Z,0.50
2024-02-08T11:21:05.730Z,0.30
2024-02-08T11:23:33.627Z,0.20
2024-02-08T11:26:10.169Z,0.20
2024-02-08T11:28:49.069Z,0.60
2024-02-08T11:31:19.553Z,0.80
2024-02-08T11:33:46.882Z,0.90
2024-02-08T11:36:15.945Z,0.80
2024-02-08T11:38:59.451Z,0.80
2024-02-08T11:41:27.471Z,0.50
2024-02-08T11:44:04.987Z,0.70
2024-02-08T11:46:39.731Z,0.50
2024-02-08T11:49:16.686Z,0.50
2024-02-08T11:51:47.475Z,0.30
2024-02-08T11:54:23.912Z,0.30
2024-02-08T11:56:52.337Z,0.00
2024-02-08T11:59:20.176Z,-0.20
2024-02-08T12:01:50.042Z,-0.30
2024-02-08T12:04:17.663Z,-0.20
2024-02-08T12:06:48.039Z,0.00
2024-02-08T12:09:24.010Z,0.00
2024-02-08T12:11:52.815Z,0.20
2024-02-08T12:14:26.588Z,0.00
2024-02-08T12:16:59.249Z,0.40
2024-02-08T12:19:29.510Z,0.20
2024-02-08T12:22:00.033Z,0.40
2024-02-08T12:24:27.645Z,0.40
2024-02-08T12:26:55.508Z,0.50
2024-02-08T12:29:26.235Z,0.60
2024-02-08T12:31:56.131Z,0.30
2024-02-08T12:34:32.906Z,0.30
2024-02-08T12:37:06.642Z,0.20
2024-02-08T12:39:41.462Z,0.00
2024-02-08T12:42:08.467Z,-0.20
2024-02-08T12:44:37.957Z,-0.30
2024-02-08T12:47:07.542Z,-0.30
2024-02-08T12:49:35.750Z,-0.30
2024-02-08T12:52:04.552Z,-0.30
2024-02-08T12:54:34.612Z,-0.30
2024-02-08T12:57:09.310Z,-0.60
2024-02-08T12:59:37.886Z,-0.70
2024-02-08T13:02:10.483Z,-0.60
2024-02-08T13:04:45.413Z,-0.60
2024-02-08T13:07:20.130Z,-0.60
2024-02-08T13:09:47.945Z,-0.60
2024-02-08T13:12:18.336Z,-0.80
2024-02-08T13:15:07.683Z,-0.70
2024-02-08T13:17:35.461Z,-0.70
2024-02-08T13:20:14.525Z,-0.80
2024-02-08T13:22:53.570Z,-0.90
2024-02-08T13:25:20.908Z,-0.80
2024-02-08T13:27:51.543Z,-0.90
2024-02-08T13:30:18.845Z,-0.90
2024-02-08T13:32:53.849Z,-0.90
2024-02-08T13:35:21.339Z,-0.90
2024-02-08T13:37:49.954Z,-0.90
2024-02-08T13:40:24.194Z,-0.80
2024-02-08T13:42:55.735Z,-1.20
2024-02-08T13:45:27.390Z,-1.10
2024-02-08T13:47:59.099Z,-1.00
2024-02-08T13:50:31.998Z,-1.30
2024-02-08T13:53:01.971Z,-1.00
2024-02-08T13:58:02.311Z,-1.10
2024-02-08T14:00:31.683Z,-1.20
2024-02-08T14:02:58.813Z,-1.30
2024-02-08T14:05:27.006Z,-1.30
2024-02-08T14:07:55.671Z,-1.40
2024-02-08T14:10:29.270Z,-1.40
2024-02-08T14:13:08.086Z,-1.60
2024-02-08T14:15:39.661Z,-1.70
2024-02-08T14:18:27.168Z,-1.80
2024-02-08T14:21:02.396Z,-1.90
2024-02-08T14:23:34.356Z,-1.80
2024-02-08T14:26:08.286Z,-1.70
2024-02-08T14:28:43.768Z,-1.60
2024-02-08T14:31:11.304Z,-1.60
2024-02-08T14:33:39.045Z,-1.70
2024-02-08T14:36:09.774Z,-1.60
2024-02-08T14:38:41.986Z,-1.60
2024-02-08T14:41:09.849Z,-1.70
2024-02-08T14:43:36.780Z,-1.60
2024-02-08T14:46:04.160Z,-1.70
2024-02-08T14:48:38.927Z,-1.90
2024-02-08T14:51:24.450Z,-2.00
2024-02-08T14:53:54.886Z,-1.90
2024-02-08T14:56:22.109Z,-1.80
2024-02-08T14:59:10.950Z,-2.00
2024-02-08T15:01:41.048Z,-2.10
2024-02-08T15:04:23.302Z,-2.30
2024-02-08T15:07:15.156Z,-2.30
2024-02-08T15:09:42.936Z,-2.30
2024-02-08T15:12:35.969Z,-2.10
2024-02-08T15:15:07.351Z,-2.20
2024-02-08T15:17:44.481Z,-2.20
2024-02-08T15:20:30.578Z,-2.40
2024-02-08T15:23:11.086Z,-2.40
2024-02-08T15:25:45.293Z,-2.30
2024-02-08T15:28:33.456Z,-2.40
2024-02-08T15:31:13.504Z,-2.50
2024-02-08T15:33:59.325Z,-2.70
2024-02-08T15:36:44.825Z,-2.80
2024-02-08T15:39:30.673Z,-2.80
2024-02-08T15:42:03.009Z,-2.80
2024-02-08T15:44:36.938Z,-2.90
2024-02-08T15:47:14.100Z,-2.90
2024-02-08T15:49:45.267Z,-2.90
2024-02-08T15:52:16.623Z,-3.10
2024-02-08T15:54:46.250Z,-3.10
2024-02-08T15:57:14.644Z,-3.20
2024-02-08T15:59:48.008Z,-3.20
2024-02-08T16:02:18.747Z,-3.20
2024-02-08T16:04:52.337Z,-3.20
2024-02-08T16:07:28.749Z,-3.20
2024-02-08T16:09:59.930Z,-3.30
2024-02-08T16:12:33.253Z,-3.30
2024-02-08T16:15:09.194Z,-3.30
2024-02-08T16:17:37.656Z,-3.40
2024-02-08T16:20:24.690Z,-3.40
2024-02-08T16:23:06.832Z,-3.50
2024-02-08T16:25:46.373Z,-3.40
2024-02-08T16:28:25.057Z,-3.50
2024-02-08T16:31:23.236Z,-3.50
2024-02-08T16:33:56.181Z,-3.60
2024-02-08T16:36:31.411Z,-3.50
2024-02-08T16:39:15.772Z,-3.50
2024-02-08T16:42:00.875Z,-3.40
2024-02-08T16:44:32.110Z,-3.50
2024-02-08T16:47:01.287Z,-3.50
2024-02-08T16:49:31.889Z,-3.60
2024-02-08T16:52:05.536Z,-3.60
2024-02-08T16:54:36.256Z,-3.50
2024-02-08T16:57:08.769Z,-3.60
2024-02-08T16:59:50.159Z,-3.70
2024-02-08T17:02:26.509Z,-3.70
2024-02-08T17:05:10.750Z,-3.70
2024-02-08T17:07:44.389Z,-3.80
2024-02-08T17:10:13.987Z,-3.80
2024-02-08T17:12:57.920Z,-3.90
2024-02-08T17:15:49.830Z,-4.00
2024-02-08T17:18:25.583Z,-4.00
2024-02-08T17:21:06.746Z,-4.10
2024-02-08T17:23:44.392Z,-4.10
2024-02-08T17:26:28.001Z,-4.00
2024-02-08T17:29:21.294Z,-4.00
2024-02-08T17:31:49.138Z,-4.00
2024-02-08T17:34:23.471Z,-4.00
2024-02-08T17:36:55.552Z,-3.90
2024-02-08T17:39:26.555Z,-4.00
2024-02-08T17:41:58.348Z,-3.90
2024-02-08T17:44:31.359Z,-3.90
2024-02-08T17:47:01.381Z,-3.80
2024-02-08T17:49:31.247Z,-4.00
2024-02-08T17:52:00.936Z,-4.00
2024-02-08T17:54:33.235Z,-4.10
2024-02-08T17:57:04.002Z,-4.10
2024-02-08T17:59:31.518Z,-4.10
2024-02-08T18:02:06.142Z,-4.00
2024-02-08T18:04:38.090Z,-4.30
2024-02-08T18:07:10.578Z,-4.20
2024-02-08T18:09:41.184Z,-4.20
2024-02-08T18:12:14.710Z,-4.30
2024-02-08T18:14:42.806Z,-4.30
2024-02-08T18:17:22.862Z,-4.30
2024-02-08T18:19:50.460Z,-4.30
2024-02-08T18:22:19.599Z,-4.40
2024-02-08T18:24:49.843Z,-4.40
2024-02-08T18:27:23.342Z,-4.30
2024-02-08T18:29:52.440Z,-4.50
2024-02-08T18:32:20.385Z,-4.40
2024-02-08T18:34:50.830Z,-4.40
2024-02-08T18:37:28.049Z,-4.40
2024-02-08T18:39:56.211Z,-4.20
2024-02-08T18:42:23.814Z,-4.20
2024-02-08T18:44:51.480Z,-4.20
2024-02-08T18:47:22.454Z,-4.20
2024-02-08T18:49:50.712Z,-4.20
2024-02-08T18:52:19.631Z,-4.20
2024-02-08T18:54:49.101Z,-4.20
2024-02-08T18:57:17.498Z,-4.30
2024-02-08T18:59:46.574Z,-4.30
2024-02-08T19:02:14.011Z,-4.20
2024-02-08T19:04:45.922Z,-4.20
2024-02-08T19:07:13.288Z,-4.30
2024-02-08T19:09:41.871Z,-4.30
2024-02-08T19:12:11.090Z,-4.20
2024-02-08T19:14:38.379Z,-4.20
2024-02-08T19:17:08.880Z,-4.20
2024-02-08T19:19:36.100Z,-4.30
2024-02-08T19:22:13.754Z,-4.40
2024-02-08T19:24:41.854Z,-4.40
2024-02-08T19:27:08.882Z,-4.40
2024-02-08T19:29:37.519Z,-4.40
2024-02-08T19:32:08.683Z,-4.50
2024-02-08T19:34:39.020Z,-4.50
2024-02-08T19:37:07.776Z,-4.40
2024-02-08T19:39:38.624Z,-4.50
2024-02-08T19:42:09.114Z,-4.60
2024-02-08T19:44:37.279Z,-4.60
2024-02-08T19:47:22.498Z,-4.60
2024-02-08T19:49:53.027Z,-4.70
2024-02-08T19:52:22.391Z,-4.70
2024-02-08T19:54:58.200Z,-4.70
2024-02-08T19:57:34.436Z,-4.70
2024-02-08T20:00:01.674Z,-4.80
2024-02-08T20:02:29.473Z,-4.80
2024-02-08T20:05:01.025Z,-4.80
2024-02-08T20:07:40.579Z,-4.80
2024-02-08T20:10:14.885Z,-4.70
2024-02-08T20:12:46.593Z,-4.90
2024-02-08T20:15:18.062Z,-4.90
2024-02-08T20:17:47.114Z,-4.80
2024-02-08T20:20:20.559Z,-4.90
2024-02-08T20:22:53.344Z,-4.90
2024-02-08T20:25:29.066Z,-4.80
2024-02-08T20:27:59.937Z,-4.80
2024-02-08T20:30:29.523Z,-4.80
2024-02-08T20:33:02.489Z,-4.80
2024-02-08T20:35:32.721Z,-4.80
2024-02-08T20:38:01.323Z,-4.90
2024-02-08T20:40:30.036Z,-4.70
2024-02-08T20:43:00.550Z,-4.80
2024-02-08T20:45:28.580Z,-4.80
2024-02-08T20:47:55.612Z,-4.80
2024-02-08T20:50:23.012Z,-4.70
2024-02-08T20:52:51.072Z,-4.80
2024-02-08T20:55:25.522Z,-4.80
2024-02-08T20:57:54.105Z,-4.90
2024-02-08T21:00:23.873Z,-4.80
2024-02-08T21:02:54.344Z,-4.80
2024-02-08T21:05:22.517Z,-4.80
2024-02-08T21:07:50.810Z,-4.90
2024-02-08T21:10:26.986Z,-4.80
2024-02-08T21:12:54.241Z,-4.80
2024-02-08T21:15:24.407Z,-4.90
2024-02-08T21:17:51.651Z,-4.90
2024-02-08T21:20:19.082Z,-4.80
2024-02-08T21:22:49.240Z,-4.80
2024-02-08T21:25:21.384Z,-4.80
2024-02-08T21:27:53.918Z,-4.70
2024-02-08T21:30:22.163Z,-4.80
2024-02-08T21:32:50.163Z,-4.70
2024-02-08T21:35:18.257Z,-4.80
2024-02-08T21:37:46.942Z,-4.70
2024-02-08T21:40:15.407Z,-4.70
2024-02-08T21:42:42.429Z,-4.70
2024-02-08T21:45:13.770Z,-4.70
2024-02-08T21:47:41.162Z,-4.70
2024-02-08T21:50:08.920Z,-4.60
2024-02-08T21:52:36.752Z,-4.70
2024-02-08T21:55:08.110Z,-4.70
2024-02-08T21:57:35.688Z,-4.70
2024-02-08T22:00:12.425Z,-4.80
2024-02-08T22:02:43.730Z,-4.80
2024-02-08T22:05:11.587Z,-4.90
2024-02-08T22:07:40.040Z,-4.90
2024-02-08T22:10:14.687Z,-4.80
2024-02-08T22:12:48.007Z,-4.80
2024-02-08T22:15:19.148Z,-4.70
2024-02-08T22:17:53.148Z,-4.70
2024-02-08T22:20:23.246Z,-4.80
2024-02-08T22:22:53.864Z,-4.80
2024-02-08T22:25:22.722Z,-4.80
2024-02-08T22:27:50.052Z,-4.80
2024-02-08T22:30:16.908Z,-4.80
2024-02-08T22:32:48.108Z,-4.80
2024-02-08T22:35:16.986Z,-4.70
2024-02-08T22:37:45.048Z,-4.80
2024-02-08T22:40:12.526Z,-4.60
2024-02-08T22:42:40.244Z,-4.60
2024-02-08T22:45:12.965Z,-4.70
2024-02-08T22:47:43.735Z,-4.80
2024-02-08T22:50:15.860Z,-4.80
2024-02-08T22:52:54.243Z,-4.80
2024-02-08T22:55:25.626Z,-4.80
2024-02-08T22:58:01.767Z,-4.80
2024-02-08T23:00:29.003Z,-4.70
2024-02-08T23:03:09.288Z,-4.70
2024-02-08T23:05:40.907Z,-4.80
2024-02-08T23:08:13.004Z,-4.70
2024-02-08T23:10:40.847Z,-4.70
2024-02-08T23:13:12.236Z,-4.70
2024-02-08T23:15:46.809Z,-4.70
2024-02-08T23:18:20.534Z,-4.60
2024-02-08T23:20:48.659Z,-4.80
2024-02-08T23:23:15.743Z,-4.70
2024-02-08T23:25:42.790Z,-4.70
2024-02-08T23:28:12.706Z,-4.70
2024-02-08T23:30:45.573Z,-4.80
2024-02-08T23:33:14.809Z,-4.70
2024-02-08T23:35:41.947Z,-4.60
2024-02-08T23:38:09.098Z,-4.60
2024-02-08T23:40:36.247Z,-4.70
2024-02-08T23:43:08.877Z,-4.60
2024-02-08T23:45:40.584Z,-4.60
2024-02-08T23:48:10.078Z,-4.60
2024-02-08T23:50:37.711Z,-4.60
2024-02-08T23:53:05.640Z,-4.50
2024-02-08T23:55:36.590Z,-4.50
2024-02-08T23:58:05.614Z,-4.50
